createdAt,value
2019-06-27T00:01:20.695Z,99.90
2019-06-27T00:04:10.440Z,99.90
2019-06-27T00:06:59.749Z,99.90
2019-06-27T00:09:49.066Z,99.90
2019-06-27T00:12:38.332Z,99.90
2019-06-27T00:15:27.352Z,99.90
2019-06-27T00:18:16.350Z,99.90
2019-06-27T00:21:05.910Z,99.90
2019-06-27T00:23:54.811Z,99.90
2019-06-27T00:26:56.507Z,99.90
2019-06-27T00:29:35.309Z,99.90
2019-06-27T00:32:24.421Z,99.90
2019-06-27T00:35:13.559Z,99.90
2019-06-27T00:38:02.696Z,99.90
2019-06-27T00:40:51.842Z,99.90
2019-06-27T00:43:40.992Z,99.90
2019-06-27T00:46:30.131Z,99.90
2019-06-27T00:49:19.394Z,99.90
2019-06-27T00:52:08.197Z,99.90
2019-06-27T00:54:57.692Z,99.90
2019-06-27T00:57:47.257Z,99.90
2019-06-27T01:00:36.607Z,99.90
2019-06-27T01:03:25.776Z,99.90
2019-06-27T01:06:15.227Z,99.90
2019-06-27T01:09:05.720Z,99.90
2019-06-27T01:11:55.019Z,99.90
2019-06-27T01:14:44.231Z,99.90
2019-06-27T01:17:33.854Z,99.90
2019-06-27T01:20:23.620Z,99.90
2019-06-27T01:23:12.699Z,99.90
2019-06-27T01:26:02.797Z,99.90
2019-06-27T01:28:52.759Z,99.90
2019-06-27T01:31:42.403Z,99.90
2019-06-27T01:34:31.803Z,99.90
2019-06-27T01:37:21.104Z,99.90
2019-06-27T01:40:12.182Z,99.90
2019-06-27T01:43:02.079Z,99.90
2019-06-27T01:45:57.346Z,99.90
2019-06-27T01:48:46.538Z,99.90
2019-06-27T01:51:35.678Z,99.90
2019-06-27T01:54:24.195Z,99.90
2019-06-27T01:57:13.475Z,99.90
2019-06-27T02:00:03.535Z,99.90
2019-06-27T02:02:53.088Z,99.90
2019-06-27T02:05:42.315Z,99.90
2019-06-27T02:08:31.452Z,99.90
2019-06-27T02:11:20.890Z,99.90
2019-06-27T02:14:10.089Z,99.90
2019-06-27T02:16:59.546Z,99.90
2019-06-27T02:19:48.826Z,99.90
2019-06-27T02:22:37.997Z,99.90
2019-06-27T02:25:27.534Z,99.90
2019-06-27T02:28:16.878Z,99.90
2019-06-27T02:31:05.955Z,99.90
2019-06-27T02:33:55.356Z,99.90
2019-06-27T02:36:44.305Z,99.90
2019-06-27T02:39:32.774Z,99.90
2019-06-27T02:42:22.368Z,99.90
2019-06-27T02:45:11.985Z,99.90
2019-06-27T02:48:01.165Z,99.90
2019-06-27T02:50:50.508Z,99.90
2019-06-27T02:53:39.433Z,99.90
2019-06-27T02:56:29.144Z,99.90
2019-06-27T02:59:18.053Z,99.90
2019-06-27T03:02:07.611Z,99.90
2019-06-27T03:04:56.824Z,99.90
2019-06-27T03:07:46.470Z,99.90
2019-06-27T03:10:36.288Z,99.90
2019-06-27T03:13:24.999Z,99.90
2019-06-27T03:16:14.608Z,99.90
2019-06-27T03:19:03.710Z,99.90
2019-06-27T03:21:53.173Z,99.90
2019-06-27T03:24:42.237Z,99.90
2019-06-27T03:27:31.536Z,99.90
2019-06-27T03:30:20.949Z,99.90
2019-06-27T03:33:09.555Z,99.90
2019-06-27T03:35:58.841Z,99.90
2019-06-27T03:38:48.025Z,99.90
2019-06-27T03:41:37.468Z,99.90
2019-06-27T03:44:26.309Z,99.90
2019-06-27T03:47:15.360Z,99.90
2019-06-27T03:50:04.169Z,99.90
2019-06-27T03:52:53.494Z,99.90
2019-06-27T03:55:42.591Z,99.90
2019-06-27T03:58:32.391Z,99.90
2019-06-27T04:01:21.316Z,99.90
2019-06-27T04:04:11.589Z,99.90
2019-06-27T04:07:00.567Z,99.90
2019-06-27T04:09:50.255Z,99.90
2019-06-27T04:12:38.797Z,99.90
2019-06-27T04:15:27.718Z,99.90
2019-06-27T04:18:16.310Z,99.90
2019-06-27T04:21:05.252Z,99.90
2019-06-27T04:23:54.013Z,99.90
2019-06-27T04:26:43.122Z,99.90
2019-06-27T04:29:34.316Z,99.90
2019-06-27T04:32:23.112Z,99.90
2019-06-27T04:35:12.316Z,99.90
2019-06-27T04:38:01.932Z,99.90
2019-06-27T04:40:51.486Z,99.90
2019-06-27T04:43:40.831Z,99.90
2019-06-27T04:46:30.382Z,99.90
2019-06-27T04:49:19.418Z,99.90
2019-06-27T04:52:08.034Z,99.90
2019-06-27T04:54:56.673Z,99.90
2019-06-27T04:57:46.224Z,99.90
2019-06-27T05:00:35.723Z,99.90
2019-06-27T05:03:25.288Z,99.90
2019-06-27T05:06:14.368Z,99.90
2019-06-27T05:09:04.045Z,99.90
2019-06-27T05:11:53.136Z,99.90
2019-06-27T05:14:42.093Z,99.90
2019-06-27T05:17:31.222Z,99.90
2019-06-27T05:20:21.258Z,99.90
2019-06-27T05:23:10.517Z,99.90
2019-06-27T05:25:59.488Z,99.90
2019-06-27T05:28:48.414Z,99.90
2019-06-27T05:31:37.160Z,99.40
2019-06-27T05:34:26.686Z,96.90
2019-06-27T05:37:16.156Z,97.00
2019-06-27T05:40:06.437Z,95.30
2019-06-27T05:42:55.920Z,96.50
2019-06-27T05:45:44.924Z,94.00
2019-06-27T05:48:33.885Z,92.10
2019-06-27T05:51:22.949Z,91.60
2019-06-27T05:54:12.255Z,91.40
2019-06-27T05:57:01.937Z,90.70
2019-06-27T06:00:04.806Z,91.10
2019-06-27T06:03:04.287Z,92.60
2019-06-27T06:06:05.866Z,92.60
2019-06-27T06:08:58.478Z,91.80
2019-06-27T06:11:47.602Z,90.80
2019-06-27T06:14:36.283Z,90.30
2019-06-27T06:17:25.296Z,89.50
2019-06-27T06:20:14.975Z,88.70
2019-06-27T06:23:04.586Z,85.30
2019-06-27T06:25:53.958Z,84.50
2019-06-27T06:28:42.930Z,83.00
2019-06-27T06:31:32.261Z,80.40
2019-06-27T06:34:21.539Z,81.60
2019-06-27T06:37:10.843Z,80.20
2019-06-27T06:40:00.077Z,76.20
2019-06-27T06:42:49.072Z,74.60
2019-06-27T06:45:38.090Z,75.10
2019-06-27T06:48:27.200Z,73.60
2019-06-27T06:51:16.231Z,72.60
2019-06-27T06:54:05.378Z,71.60
2019-06-27T06:56:54.993Z,69.30
2019-06-27T06:59:44.404Z,67.80
2019-06-27T07:02:32.955Z,68.90
2019-06-27T07:05:22.490Z,69.60
2019-06-27T07:08:11.899Z,72.50
2019-06-27T07:11:01.261Z,71.60
2019-06-27T07:13:50.452Z,68.70
2019-06-27T07:16:39.341Z,66.90
2019-06-27T07:19:28.840Z,66.40
2019-06-27T07:22:18.095Z,66.20
2019-06-27T07:25:06.986Z,65.50
2019-06-27T07:27:56.470Z,65.20
2019-06-27T07:30:46.410Z,68.30
2019-06-27T07:33:35.295Z,66.60
2019-06-27T07:36:24.576Z,66.10
2019-06-27T07:39:13.421Z,66.50
2019-06-27T07:42:03.000Z,65.70
2019-06-27T07:44:52.493Z,63.90
2019-06-27T07:47:42.277Z,66.10
2019-06-27T07:50:31.764Z,68.80
2019-06-27T07:53:20.654Z,69.70
2019-06-27T07:56:09.495Z,67.70
2019-06-27T07:58:58.567Z,64.60
2019-06-27T08:01:48.307Z,64.60
2019-06-27T08:04:37.527Z,64.20
2019-06-27T08:07:26.605Z,64.70
2019-06-27T08:10:16.332Z,63.90
2019-06-27T08:13:05.708Z,62.60
2019-06-27T08:15:54.672Z,61.30
2019-06-27T08:18:43.878Z,62.80
2019-06-27T08:21:32.921Z,61.40
2019-06-27T08:24:21.462Z,61.30
2019-06-27T08:27:10.519Z,60.80
2019-06-27T08:29:59.498Z,61.00
2019-06-27T08:32:49.342Z,63.90
2019-06-27T08:35:38.921Z,63.90
2019-06-27T08:38:28.043Z,63.30
2019-06-27T08:41:17.017Z,62.20
2019-06-27T08:44:06.633Z,63.60
2019-06-27T08:46:55.642Z,66.70
2019-06-27T08:49:44.455Z,65.30
2019-06-27T08:52:33.599Z,61.00
2019-06-27T08:55:23.538Z,62.70
2019-06-27T08:58:12.608Z,64.40
2019-06-27T09:01:02.037Z,63.30
2019-06-27T09:03:54.388Z,64.30
2019-06-27T09:06:43.542Z,65.70
2019-06-27T09:09:33.087Z,65.60
2019-06-27T09:12:22.229Z,64.80
2019-06-27T09:15:11.936Z,63.10
2019-06-27T09:18:00.698Z,61.90
2019-06-27T09:20:49.910Z,61.00
2019-06-27T09:23:39.084Z,63.20
2019-06-27T09:26:28.453Z,60.60
2019-06-27T09:29:17.871Z,59.50
2019-06-27T09:32:20.975Z,58.10
2019-06-27T09:34:58.316Z,57.20
2019-06-27T09:37:47.456Z,56.40
2019-06-27T09:40:36.637Z,59.00
2019-06-27T09:43:26.077Z,58.30
2019-06-27T09:46:15.267Z,58.40
2019-06-27T09:49:04.613Z,60.20
2019-06-27T09:51:53.961Z,60.20
2019-06-27T09:54:43.081Z,57.60
2019-06-27T09:57:32.499Z,56.90
2019-06-27T10:00:22.566Z,57.50
2019-06-27T10:03:11.528Z,57.00
2019-06-27T10:06:00.293Z,56.80
2019-06-27T10:08:49.556Z,56.90
2019-06-27T10:11:38.896Z,55.70
2019-06-27T10:14:27.998Z,55.30
2019-06-27T10:17:17.254Z,54.30
2019-06-27T10:20:07.582Z,53.70
2019-06-27T10:22:56.197Z,54.50
2019-06-27T10:25:45.483Z,54.00
2019-06-27T10:28:34.689Z,54.40
2019-06-27T10:31:23.863Z,54.40
2019-06-27T10:34:12.853Z,55.00
2019-06-27T10:37:01.904Z,53.50
2019-06-27T10:39:51.600Z,53.40
2019-06-27T10:42:41.082Z,53.00
2019-06-27T10:45:30.346Z,52.40
2019-06-27T10:48:18.917Z,53.10
2019-06-27T10:51:08.259Z,54.10
2019-06-27T10:53:57.845Z,49.70
2019-06-27T10:56:47.275Z,50.30
2019-06-27T10:59:36.945Z,50.30
2019-06-27T11:02:26.047Z,50.10
2019-06-27T11:05:15.479Z,49.70
2019-06-27T11:08:04.147Z,50.80
2019-06-27T11:10:52.943Z,51.90
2019-06-27T11:13:57.670Z,53.00
2019-06-27T11:16:33.183Z,54.70
2019-06-27T11:19:22.547Z,54.10
2019-06-27T11:22:12.042Z,54.10
2019-06-27T11:25:01.071Z,53.40
2019-06-27T11:27:50.385Z,53.10
2019-06-27T11:30:39.451Z,52.00
2019-06-27T11:33:33.056Z,52.30
2019-06-27T11:36:19.655Z,52.60
2019-06-27T11:39:09.120Z,51.80
2019-06-27T11:41:58.039Z,52.80
2019-06-27T11:44:46.722Z,50.40
2019-06-27T11:47:36.415Z,51.90
2019-06-27T11:50:26.094Z,52.40
2019-06-27T11:53:15.360Z,52.50
2019-06-27T11:56:04.101Z,51.80
2019-06-27T11:58:52.649Z,52.70
2019-06-27T12:01:41.975Z,50.80
2019-06-27T12:04:31.037Z,51.50
2019-06-27T12:07:20.841Z,50.20
2019-06-27T12:10:10.604Z,49.80
2019-06-27T12:12:59.239Z,49.40
2019-06-27T12:15:51.445Z,49.70
2019-06-27T12:18:38.523Z,48.60
2019-06-27T12:21:27.585Z,49.00
2019-06-27T12:24:16.774Z,49.10
2019-06-27T12:27:06.618Z,49.30
2019-06-27T12:29:56.104Z,49.00
2019-06-27T12:32:52.595Z,48.50
2019-06-27T12:35:36.543Z,47.70
2019-06-27T12:38:25.624Z,48.00
2019-06-27T12:41:14.801Z,47.60
2019-06-27T12:44:04.191Z,46.80
2019-06-27T12:46:54.042Z,47.10
2019-06-27T12:50:00.650Z,47.10
2019-06-27T12:52:33.442Z,45.40
2019-06-27T12:55:22.465Z,44.70
2019-06-27T12:58:11.349Z,43.10
2019-06-27T13:01:00.377Z,43.70
2019-06-27T13:03:51.709Z,42.80
2019-06-27T13:06:40.691Z,43.20
2019-06-27T13:09:29.471Z,42.70
2019-06-27T13:12:18.852Z,43.00
2019-06-27T13:15:08.537Z,43.20
2019-06-27T13:17:58.617Z,42.30
2019-06-27T13:20:57.795Z,39.60
2019-06-27T13:23:38.268Z,39.50
2019-06-27T13:26:27.151Z,38.70
2019-06-27T13:29:16.139Z,37.90
2019-06-27T13:32:05.060Z,39.10
2019-06-27T13:34:54.253Z,39.80
2019-06-27T13:37:43.237Z,40.30
2019-06-27T13:40:32.537Z,38.90
2019-06-27T13:43:21.806Z,38.90
2019-06-27T13:46:11.325Z,37.80
2019-06-27T13:49:00.535Z,38.30
2019-06-27T13:51:49.223Z,38.20
2019-06-27T13:54:38.502Z,39.20
2019-06-27T13:57:27.913Z,39.60
2019-06-27T14:00:18.832Z,39.60
2019-06-27T14:03:07.984Z,38.30
2019-06-27T14:05:56.909Z,39.40
2019-06-27T14:08:46.583Z,38.90
2019-06-27T14:11:35.472Z,40.00
2019-06-27T14:14:24.707Z,40.90
2019-06-27T14:17:14.082Z,42.30
2019-06-27T14:20:02.911Z,42.80
2019-06-27T14:22:51.736Z,41.50
2019-06-27T14:25:40.781Z,40.50
2019-06-27T14:28:30.144Z,41.00
2019-06-27T14:31:19.771Z,41.20
2019-06-27T14:34:08.906Z,41.40
2019-06-27T14:36:57.529Z,42.10
2019-06-27T14:39:46.401Z,43.20
2019-06-27T14:42:35.746Z,42.80
2019-06-27T14:45:26.421Z,43.20
2019-06-27T14:48:15.800Z,43.50
2019-06-27T14:51:04.922Z,43.90
2019-06-27T14:53:55.624Z,43.90
2019-06-27T14:56:44.699Z,45.10
2019-06-27T14:59:33.695Z,43.50
2019-06-27T15:02:22.793Z,42.90
2019-06-27T15:05:12.863Z,43.10
2019-06-27T15:08:02.634Z,44.50
2019-06-27T15:10:51.986Z,44.80
2019-06-27T15:13:41.473Z,43.60
2019-06-27T15:16:30.370Z,43.40
2019-06-27T15:19:19.154Z,43.80
2019-06-27T15:22:08.395Z,43.60
2019-06-27T15:24:57.506Z,43.50
2019-06-27T15:27:46.958Z,43.50
2019-06-27T15:30:36.584Z,44.60
2019-06-27T15:33:25.948Z,45.30
2019-06-27T15:36:15.075Z,45.10
2019-06-27T15:39:05.669Z,45.20
2019-06-27T15:41:54.888Z,45.50
2019-06-27T15:44:43.981Z,45.80
2019-06-27T15:47:32.550Z,46.80
2019-06-27T15:50:21.470Z,47.70
2019-06-27T15:53:10.552Z,47.00
2019-06-27T15:55:59.799Z,46.70
2019-06-27T15:58:49.015Z,46.60
2019-06-27T16:01:38.493Z,46.80
2019-06-27T16:04:33.617Z,45.50
2019-06-27T16:07:17.923Z,46.00
2019-06-27T16:10:08.356Z,46.10
2019-06-27T16:13:02.234Z,45.20
2019-06-27T16:15:49.532Z,45.50
2019-06-27T16:18:40.987Z,45.30
2019-06-27T16:21:30.815Z,46.00
2019-06-27T16:24:20.058Z,45.90
2019-06-27T16:27:09.269Z,45.00
2019-06-27T16:29:58.502Z,44.80
2019-06-27T16:32:47.661Z,45.00
2019-06-27T16:35:36.449Z,45.90
2019-06-27T16:38:25.326Z,44.90
2019-06-27T16:41:14.959Z,45.50
2019-06-27T16:44:04.106Z,45.90
2019-06-27T16:46:54.103Z,46.40
2019-06-27T16:49:43.135Z,47.00
2019-06-27T16:52:32.243Z,47.50
2019-06-27T16:55:21.192Z,47.10
2019-06-27T16:58:10.483Z,46.70
2019-06-27T17:01:00.181Z,46.10
2019-06-27T17:03:49.587Z,47.00
2019-06-27T17:06:42.534Z,46.60
2019-06-27T17:09:29.749Z,46.00
2019-06-27T17:12:18.695Z,46.80
2019-06-27T17:15:09.871Z,47.10
2019-06-27T17:17:58.863Z,46.80
2019-06-27T17:20:47.957Z,47.00
2019-06-27T17:23:37.063Z,47.60
2019-06-27T17:26:25.988Z,48.00
2019-06-27T17:29:15.725Z,47.80
2019-06-27T17:32:06.550Z,48.00
2019-06-27T17:34:55.663Z,48.60
2019-06-27T17:37:44.985Z,48.40
2019-06-27T17:40:34.465Z,48.40
2019-06-27T17:43:23.909Z,48.60
2019-06-27T17:46:12.542Z,48.20
2019-06-27T17:49:02.276Z,48.50
2019-06-27T17:51:51.916Z,48.90
2019-06-27T17:54:41.157Z,48.90
2019-06-27T17:57:30.440Z,49.40
2019-06-27T18:00:19.566Z,49.80
2019-06-27T18:03:08.278Z,50.40
2019-06-27T18:05:57.197Z,50.60
2019-06-27T18:08:47.161Z,51.30
2019-06-27T18:11:36.761Z,51.80
2019-06-27T18:14:25.716Z,51.60
2019-06-27T18:17:15.272Z,51.90
2019-06-27T18:20:05.114Z,52.20
2019-06-27T18:22:54.019Z,52.60
2019-06-27T18:25:42.644Z,53.10
2019-06-27T18:28:31.896Z,54.30
2019-06-27T18:31:21.122Z,54.10
2019-06-27T18:34:10.343Z,54.20
2019-06-27T18:36:59.283Z,54.50
2019-06-27T18:39:48.499Z,55.00
2019-06-27T18:42:38.063Z,55.30
2019-06-27T18:45:27.496Z,55.30
2019-06-27T18:48:16.475Z,55.70
2019-06-27T18:51:05.268Z,55.70
2019-06-27T18:53:54.433Z,56.20
2019-06-27T18:56:44.159Z,56.60
2019-06-27T18:59:33.426Z,56.70
2019-06-27T19:02:22.816Z,57.00
2019-06-27T19:05:12.681Z,57.20
2019-06-27T19:08:01.966Z,57.40
2019-06-27T19:10:51.294Z,57.70
2019-06-27T19:13:40.511Z,58.20
2019-06-27T19:16:29.698Z,58.40
2019-06-27T19:19:21.604Z,58.90
2019-06-27T19:22:29.566Z,59.20
2019-06-27T19:25:24.546Z,59.30
2019-06-27T19:28:13.426Z,59.90
2019-06-27T19:31:02.636Z,60.20
2019-06-27T19:33:51.942Z,60.80
2019-06-27T19:36:41.577Z,61.50
2019-06-27T19:39:30.320Z,61.90
2019-06-27T19:42:19.494Z,62.40
2019-06-27T19:45:08.428Z,63.00
2019-06-27T19:47:57.511Z,63.40
2019-06-27T19:50:47.176Z,63.90
2019-06-27T19:53:35.899Z,64.00
2019-06-27T19:56:24.883Z,64.40
2019-06-27T19:59:13.634Z,64.60
2019-06-27T20:02:02.823Z,65.10
2019-06-27T20:04:51.540Z,65.50
2019-06-27T20:07:40.529Z,66.00
2019-06-27T20:10:29.645Z,66.10
2019-06-27T20:13:18.883Z,66.60
2019-06-27T20:16:08.239Z,66.60
2019-06-27T20:18:57.367Z,67.10
2019-06-27T20:21:46.708Z,67.50
2019-06-27T20:24:35.613Z,68.50
2019-06-27T20:27:24.841Z,68.50
2019-06-27T20:30:14.623Z,68.80
2019-06-27T20:33:04.113Z,69.70
2019-06-27T20:35:53.280Z,70.10
2019-06-27T20:38:42.317Z,70.90
2019-06-27T20:41:31.025Z,71.30
2019-06-27T20:44:20.148Z,71.60
2019-06-27T20:47:09.226Z,72.00
2019-06-27T20:49:58.348Z,72.40
2019-06-27T20:52:47.620Z,73.00
2019-06-27T20:55:37.141Z,73.40
2019-06-27T20:58:26.019Z,73.50
2019-06-27T21:01:15.323Z,74.20
2019-06-27T21:04:04.915Z,74.60
2019-06-27T21:06:54.021Z,75.00
2019-06-27T21:09:43.547Z,75.50
2019-06-27T21:12:32.518Z,76.10
2019-06-27T21:15:22.004Z,76.40
2019-06-27T21:18:11.108Z,76.90
2019-06-27T21:21:00.387Z,77.70
2019-06-27T21:23:49.426Z,78.10
2019-06-27T21:26:38.708Z,79.40
2019-06-27T21:29:28.158Z,80.20
2019-06-27T21:32:30.938Z,81.00
2019-06-27T21:35:09.393Z,81.20
2019-06-27T21:37:58.347Z,81.50
2019-06-27T21:40:47.956Z,82.40
2019-06-27T21:43:37.833Z,83.50
2019-06-27T21:46:27.381Z,84.10
2019-06-27T21:49:16.080Z,85.10
2019-06-27T21:52:04.924Z,85.70
2019-06-27T21:54:54.014Z,86.80
2019-06-27T21:57:43.469Z,87.50
2019-06-27T22:00:35.715Z,88.80
2019-06-27T22:03:24.293Z,90.20
2019-06-27T22:06:13.677Z,90.90
2019-06-27T22:09:04.165Z,91.60
2019-06-27T22:11:53.120Z,91.80
2019-06-27T22:14:42.329Z,91.90
2019-06-27T22:17:31.782Z,92.00
2019-06-27T22:20:21.680Z,92.30
2019-06-27T22:23:10.941Z,92.50
2019-06-27T22:25:59.679Z,92.70
2019-06-27T22:28:48.831Z,92.90
2019-06-27T22:31:37.719Z,93.10
2019-06-27T22:34:26.818Z,93.10
2019-06-27T22:37:23.971Z,93.50
2019-06-27T22:40:31.253Z,93.80
2019-06-27T22:43:38.288Z,94.00
2019-06-27T22:46:45.436Z,94.20
2019-06-27T22:49:33.691Z,94.50
2019-06-27T22:52:40.666Z,95.20
2019-06-27T22:55:30.088Z,95.60
2019-06-27T22:58:18.970Z,95.70
2019-06-27T23:01:07.992Z,96.10
2019-06-27T23:03:57.772Z,96.50
2019-06-27T23:06:46.472Z,97.20
2019-06-27T23:09:35.505Z,97.70
2019-06-27T23:12:25.060Z,98.40
2019-06-27T23:15:14.374Z,99.40
2019-06-27T23:18:03.539Z,99.90
2019-06-27T23:20:52.786Z,99.90
2019-06-27T23:23:42.042Z,99.90
2019-06-27T23:26:31.314Z,99.90
2019-06-27T23:29:20.202Z,99.90
2019-06-27T23:32:08.930Z,99.90
2019-06-27T23:34:57.987Z,99.90
2019-06-27T23:37:47.370Z,99.90
2019-06-27T23:40:36.624Z,99.90
2019-06-27T23:43:25.942Z,99.90
2019-06-27T23:46:32.428Z,99.90
2019-06-27T23:49:21.522Z,99.90
2019-06-27T23:52:10.148Z,99.90
2019-06-27T23:54:59.177Z,99.90
